KGIF/GIF METAR and TAF weather

Enter ICAO airport designator
Station Type Date Time Source
KGIF METAR 2020/03/31 12:53 UTC NOAA

KGIF 311253Z AUTO 21008KT 10SM CLR 23/21 A2993 RMK AO2 SLP134 T02330206


Station Type Date Time Source
KGIF Decoded METAR 2020/03/31 12:53 UTC NOAA

WINTER HAVENS GILBERT AIRPORT , FL, United States (KGIF) 28-04N 81-45W 43M
Mar 31, 2020 - 08:53 AM EDT / 2020.03.31 1253 UTC
Wind: from the SSW (210 degrees) at 9 MPH (8 KT):0
Visibility: 10 mile(s):0
Sky conditions: clear
Temperature: 73.9 F (23.3 C)
Dew Point: 69.1 F (20.6 C)
Relative Humidity: 84%
Pressure (altimeter): 29.93 in. Hg (1013 hPa)
ob: KGIF 311253Z AUTO 21008KT 10SM CLR 23/21 A2993 RMK AO2 SLP134 T02330206
cycle: 13

Station Type Date Time Source
KGIF TAF UTC NOAA

Error!

Example: see airport list